メインページ
METAR-TAF:

METAR-TAF

空港 :

シラキューズ・ハンコック国際空港

シラキュース, ニューヨーク, アメリカ合衆国

緯度: 43-06-33N, 経度: 076-06-12W, 海抜: 128m

現時点の気象観測

当レポートは55分前の04:54(UTC)に作成
西/南西の風 4kt
気温 6°C
湿度 93%
気圧 1015 hPa
視程: 11.3km
高度500ftの曇り
小霧雨

METAR: KSYR 040454Z 24004KT 7SM -DZ OVC005 06/05 A2998 RMK AO2 DZB02 SLP151 PCPN VRY LGT P0000 T00610050 400780039

時間: 01:49 (05:49 UTC)

予報

当レポートは16分前の05:33(UTC)に作成
予報は04日の 06時(UTC)から 05日の 06時(UTC)まで有効
北/北西の風 5kt
視程: 9.7km
高度500ftの千切れ雲あり
04日の 08時(UTC)から 04日の 12時(UTC)まで一時的に
視程: 6.4km
高度500ftの曇り
04日の 1500時(UTC)から
の風 kt
視程: 9.7km
高度1500ftの千切れ雲あり
04日の 2000時(UTC)から
変向風 3kt
視程: 10km
高度2100ftの千切れ雲あり

TAF: KSYR 040533Z 0406/0506 33005KT 6SM BR BKN005 TEMPO 0408/0412 4SM BR OVC005 FM041500 00000KT 6SM BR BKN015 FM042000 VRB03KT P6SM BKN021

4,000以上の空港の気象観測と天気予報(METAR報とTAF報)

利用可能な観測所は地図上に黄色い丸と赤い丸で示す。

丸の上にカーソルを重ねると観測所名を参照できる。

次にクリックすると気象観測と天気予報を参照できる。

マップの切り替え:黒色「×」印の緑ボタンをクリックして拡大、「-」印の緑ボタンをクリックして縮小、緑色の三角印をクリックして隣りの地図に切り替え


METAR-TAF: